createdAt,value
2022-11-22T00:01:11.816Z,98901.78
2022-11-22T00:03:39.851Z,98901.28
2022-11-22T00:06:08.080Z,98903.72
2022-11-22T00:08:36.180Z,98897.81
2022-11-22T00:11:05.546Z,98902.69
2022-11-22T00:13:33.557Z,98897.91
2022-11-22T00:16:03.388Z,98897.03
2022-11-22T00:18:32.195Z,98896.16
2022-11-22T00:21:06.007Z,98907.56
2022-11-22T00:23:34.038Z,98908.53
2022-11-22T00:26:02.422Z,98898.97
2022-11-22T00:28:31.885Z,98896.94
2022-11-22T00:30:59.878Z,98898.75
2022-11-22T00:33:27.896Z,98900.25
2022-11-22T00:35:55.856Z,98908.25
2022-11-22T00:38:23.884Z,98900.41
2022-11-22T00:40:52.028Z,98908.41
2022-11-22T00:43:20.117Z,98910.66
2022-11-22T00:45:49.632Z,98915.69
2022-11-22T00:48:17.666Z,98928.41
2022-11-22T00:50:45.719Z,98930.25
2022-11-22T00:53:13.754Z,98921.63
2022-11-22T00:55:41.815Z,98925.00
2022-11-22T00:58:09.840Z,98926.47
2022-11-22T01:00:38.093Z,98924.88
2022-11-22T01:03:07.754Z,98922.09
2022-11-22T01:05:35.810Z,98918.88
2022-11-22T01:08:03.827Z,98921.81
2022-11-22T01:10:31.892Z,98925.63
2022-11-22T01:13:00.125Z,98922.84
2022-11-22T01:15:28.234Z,98922.41
2022-11-22T01:17:56.257Z,98932.75
2022-11-22T01:20:26.117Z,98934.56
2022-11-22T01:22:54.130Z,98937.13
2022-11-22T01:25:22.158Z,98941.66
2022-11-22T01:27:51.161Z,98947.03
2022-11-22T01:30:19.480Z,98948.16
2022-11-22T01:32:47.517Z,98937.72
2022-11-22T01:35:15.532Z,98932.34
2022-11-22T01:37:44.931Z,98934.69
2022-11-22T01:40:13.252Z,98934.25
2022-11-22T01:42:45.199Z,98932.66
2022-11-22T01:45:47.797Z,98939.88
2022-11-22T01:48:25.468Z,98927.00
2022-11-22T01:50:58.751Z,98934.63
2022-11-22T01:53:32.064Z,98927.22
2022-11-22T01:56:02.404Z,98936.00
2022-11-22T01:58:33.354Z,98937.78
2022-11-22T02:01:02.071Z,98935.44
2022-11-22T02:03:33.561Z,98935.44
2022-11-22T02:06:03.061Z,98926.47
2022-11-22T02:08:39.122Z,98933.31
2022-11-22T02:11:09.226Z,98939.03
2022-11-22T02:13:41.745Z,98939.69
2022-11-22T02:16:11.331Z,98941.97
2022-11-22T02:18:40.053Z,98944.09
2022-11-22T02:21:09.290Z,98943.06
2022-11-22T02:23:51.221Z,98933.34
2022-11-22T02:26:20.701Z,98935.56
2022-11-22T02:28:49.710Z,98945.88
2022-11-22T02:31:39.210Z,98948.72
2022-11-22T02:34:07.581Z,98960.59
2022-11-22T02:36:39.899Z,98951.72
2022-11-22T02:39:10.704Z,98959.72
2022-11-22T02:41:40.995Z,98963.84
2022-11-22T02:44:10.696Z,98957.47
2022-11-22T02:46:48.302Z,98954.88
2022-11-22T02:49:18.618Z,98958.91
2022-11-22T02:51:47.010Z,98961.50
2022-11-22T02:54:15.293Z,98955.66
2022-11-22T02:56:44.929Z,98967.22
2022-11-22T02:59:13.031Z,98962.84
2022-11-22T03:01:41.629Z,98962.03
2022-11-22T03:04:09.633Z,98968.56
2022-11-22T03:06:37.643Z,98974.72
2022-11-22T03:09:05.846Z,98971.16
2022-11-22T03:11:33.925Z,98970.13
2022-11-22T03:14:03.276Z,98969.78
2022-11-22T03:16:31.882Z,98968.41
2022-11-22T03:18:59.900Z,98969.28
2022-11-22T03:21:27.976Z,98975.78
2022-11-22T03:23:56.211Z,98968.84
2022-11-22T03:26:24.911Z,98960.31
2022-11-22T03:28:52.938Z,98965.91
2022-11-22T03:31:22.353Z,98967.94
2022-11-22T03:33:50.457Z,98968.13
2022-11-22T03:36:18.693Z,98964.09
2022-11-22T03:38:46.720Z,98972.28
2022-11-22T03:41:14.863Z,98977.53
2022-11-22T03:43:42.884Z,98988.50
2022-11-22T03:46:16.804Z,98980.91
2022-11-22T03:48:46.710Z,98986.22
2022-11-22T03:51:15.271Z,98990.25
2022-11-22T03:53:43.338Z,98982.84
2022-11-22T03:56:11.517Z,98979.94
2022-11-22T03:58:39.630Z,98983.03
2022-11-22T04:01:10.853Z,98985.88
2022-11-22T04:03:42.976Z,98987.34
2022-11-22T04:06:12.464Z,98989.59
2022-11-22T04:08:40.618Z,98985.31
2022-11-22T04:11:08.682Z,98987.56
2022-11-22T04:13:54.611Z,98998.91
2022-11-22T04:16:22.705Z,98999.25
2022-11-22T04:18:50.803Z,99000.56
2022-11-22T04:21:34.431Z,98998.47
2022-11-22T04:24:20.762Z,98994.81
2022-11-22T04:26:49.503Z,98988.31
2022-11-22T04:29:17.806Z,98992.13
2022-11-22T04:32:03.204Z,98996.94
2022-11-22T04:34:31.506Z,98994.00
2022-11-22T04:37:01.069Z,98997.94
2022-11-22T04:39:29.691Z,98996.59
2022-11-22T04:42:12.311Z,99001.97
2022-11-22T04:44:43.514Z,99005.06
2022-11-22T04:47:13.319Z,99017.94
2022-11-22T04:49:41.380Z,99017.41
2022-11-22T04:52:28.985Z,99011.75
2022-11-22T04:54:57.042Z,99019.63
2022-11-22T04:57:25.056Z,99021.34
2022-11-22T04:59:53.238Z,99023.03
2022-11-22T05:02:21.263Z,99023.03
2022-11-22T05:04:50.750Z,99032.09
2022-11-22T05:07:20.533Z,99045.75
2022-11-22T05:09:48.612Z,99046.72
2022-11-22T05:12:16.604Z,99056.66
2022-11-22T05:14:44.666Z,99062.69
2022-11-22T05:17:13.526Z,99066.59
2022-11-22T05:19:46.446Z,99068.38
2022-11-22T05:22:17.459Z,99077.28
2022-11-22T05:24:45.911Z,99079.66
2022-11-22T05:27:13.984Z,99080.13
2022-11-22T05:29:42.063Z,99084.81
2022-11-22T05:32:10.058Z,99094.03
2022-11-22T05:34:38.199Z,99088.41
2022-11-22T05:37:06.307Z,99099.28
2022-11-22T05:39:34.409Z,99090.03
2022-11-22T05:42:06.047Z,99109.00
2022-11-22T05:44:34.153Z,99103.63
2022-11-22T05:47:02.244Z,99119.53
2022-11-22T05:49:30.609Z,99123.81
2022-11-22T05:51:58.894Z,99118.16
2022-11-22T05:54:26.982Z,99115.88
2022-11-22T05:56:54.954Z,99114.75
2022-11-22T05:59:24.455Z,99122.34
2022-11-22T06:01:52.607Z,99115.06
2022-11-22T06:04:20.956Z,99115.13
2022-11-22T06:06:49.113Z,99112.78
2022-11-22T06:09:17.317Z,99115.50
2022-11-22T06:11:45.312Z,99119.69
2022-11-22T06:14:13.449Z,99121.72
2022-11-22T06:16:42.897Z,99124.28
2022-11-22T06:19:11.198Z,99119.19
2022-11-22T06:21:39.291Z,99129.59
2022-11-22T06:24:08.327Z,99130.16
2022-11-22T06:26:39.421Z,99122.88
2022-11-22T06:29:07.944Z,99114.94
2022-11-22T06:31:36.003Z,99116.28
2022-11-22T06:34:06.176Z,99109.22
2022-11-22T06:36:36.181Z,99116.19
2022-11-22T06:39:04.907Z,99126.84
2022-11-22T06:41:34.990Z,99132.22
2022-11-22T06:44:06.883Z,99155.13
2022-11-22T06:46:35.900Z,99158.50
2022-11-22T06:49:05.428Z,99161.53
2022-11-22T06:51:33.932Z,99153.25
2022-11-22T06:54:02.080Z,99149.53
2022-11-22T06:56:31.705Z,99152.09
2022-11-22T06:59:02.890Z,99151.97
2022-11-22T07:01:31.861Z,99157.28
2022-11-22T07:04:01.079Z,99173.00
2022-11-22T07:06:32.044Z,99174.56
2022-11-22T07:09:01.333Z,99164.34
2022-11-22T07:11:31.519Z,99168.38
2022-11-22T07:14:07.198Z,99167.13
2022-11-22T07:16:37.377Z,99173.84
2022-11-22T07:19:06.295Z,99178.69
2022-11-22T07:21:37.642Z,99173.47
2022-11-22T07:24:07.207Z,99168.53
2022-11-22T07:26:35.357Z,99167.56
2022-11-22T07:29:03.337Z,99166.84
2022-11-22T07:31:31.370Z,99171.63
2022-11-22T07:33:59.571Z,99165.22
2022-11-22T07:36:29.624Z,99167.81
2022-11-22T07:38:59.625Z,99163.28
2022-11-22T07:41:27.812Z,99171.34
2022-11-22T07:43:55.948Z,99163.69
2022-11-22T07:46:26.553Z,99160.91
2022-11-22T07:48:54.589Z,99157.16
2022-11-22T07:51:22.686Z,99147.22
2022-11-22T07:53:50.776Z,99154.19
2022-11-22T07:56:20.536Z,99147.16
2022-11-22T07:58:48.945Z,99142.88
2022-11-22T08:01:19.337Z,99138.97
2022-11-22T08:03:47.655Z,99137.81
2022-11-22T08:06:17.068Z,99143.22
2022-11-22T08:08:45.517Z,99141.56
2022-11-22T08:11:13.930Z,99141.56
2022-11-22T08:13:44.634Z,99150.44
2022-11-22T08:16:15.267Z,99146.31
2022-11-22T08:18:46.865Z,99148.56
2022-11-22T08:21:16.387Z,99150.84
2022-11-22T08:23:45.895Z,99147.53
2022-11-22T08:26:16.522Z,99150.03
2022-11-22T08:28:46.190Z,99147.50
2022-11-22T08:31:16.788Z,99135.13
2022-11-22T08:33:44.811Z,99133.25
2022-11-22T08:36:13.743Z,99139.94
2022-11-22T08:38:42.753Z,99128.13
2022-11-22T08:41:11.562Z,99113.16
2022-11-22T08:43:39.754Z,99101.31
2022-11-22T08:46:09.714Z,99094.13
2022-11-22T08:48:39.439Z,99103.16
2022-11-22T08:51:09.406Z,99097.56
2022-11-22T08:53:39.296Z,99083.97
2022-11-22T08:56:09.870Z,99082.84
2022-11-22T08:58:38.939Z,99070.47
2022-11-22T09:01:09.991Z,99065.34
2022-11-22T09:03:40.029Z,99064.53
2022-11-22T09:09:22.146Z,99056.75
2022-11-22T09:11:46.082Z,99047.69
2022-11-22T09:14:14.340Z,99052.78
2022-11-22T09:16:43.721Z,99060.22
2022-11-22T09:19:11.970Z,99058.59
2022-11-22T09:21:39.988Z,99059.25
2022-11-22T09:24:08.330Z,99048.25
2022-11-22T09:26:36.395Z,99048.75
2022-11-22T09:29:05.417Z,99051.81
2022-11-22T09:31:33.762Z,99049.81
2022-11-22T09:34:03.241Z,99039.16
2022-11-22T09:36:32.188Z,99024.81
2022-11-22T09:39:00.370Z,99027.00
2022-11-22T09:41:48.751Z,99041.56
2022-11-22T09:44:24.660Z,99040.75
2022-11-22T09:46:55.791Z,99038.69
2022-11-22T09:49:30.315Z,99054.56
2022-11-22T09:52:08.657Z,99062.84
2022-11-22T09:54:42.800Z,99059.69
2022-11-22T09:57:18.675Z,99059.47
2022-11-22T09:59:50.744Z,99061.31
2022-11-22T10:02:24.586Z,99053.81
2022-11-22T10:04:57.827Z,99048.47
2022-11-22T10:07:38.563Z,99042.25
2022-11-22T10:10:13.038Z,99036.81
2022-11-22T10:12:48.910Z,99027.34
2022-11-22T10:15:33.019Z,99024.94
2022-11-22T10:18:05.742Z,99011.94
2022-11-22T10:20:45.683Z,99021.28
2022-11-22T10:23:19.699Z,99011.50
2022-11-22T10:25:53.008Z,99024.69
2022-11-22T10:28:30.999Z,99014.19
2022-11-22T10:31:05.912Z,99016.34
2022-11-22T10:33:44.228Z,99028.28
2022-11-22T10:36:33.596Z,99027.28
2022-11-22T10:39:16.876Z,99025.06
2022-11-22T10:41:55.839Z,99014.31
2022-11-22T10:44:34.728Z,99011.19
2022-11-22T10:47:13.399Z,99016.78
2022-11-22T10:49:53.739Z,99018.34
2022-11-22T10:52:35.510Z,99019.41
2022-11-22T10:55:19.123Z,99005.31
2022-11-22T10:57:56.016Z,99011.50
2022-11-22T11:00:26.036Z,99003.00
2022-11-22T11:03:23.814Z,99000.22
2022-11-22T11:11:40.029Z,98980.00
2022-11-22T11:14:17.704Z,98972.69
2022-11-22T11:16:46.603Z,98961.38
2022-11-22T11:19:19.428Z,98962.94
2022-11-22T11:21:49.782Z,98965.19
2022-11-22T11:24:19.900Z,98971.84
2022-11-22T11:26:54.826Z,98951.28
2022-11-22T11:29:37.922Z,98943.00
2022-11-22T11:32:09.729Z,98932.56
2022-11-22T11:34:38.640Z,98930.97
2022-11-22T11:37:07.539Z,98934.47
2022-11-22T11:39:41.900Z,98934.28
2022-11-22T11:42:27.933Z,98936.16
2022-11-22T11:44:56.708Z,98941.56
2022-11-22T11:47:34.616Z,98926.78
2022-11-22T11:50:02.949Z,98919.16
2022-11-22T11:52:31.750Z,98926.66
2022-11-22T11:55:03.403Z,98921.91
2022-11-22T11:57:34.930Z,98912.63
2022-11-22T12:00:04.961Z,98927.84
2022-11-22T12:02:40.960Z,98916.63
2022-11-22T12:05:27.696Z,98914.22
2022-11-22T12:07:56.013Z,98900.56
2022-11-22T12:10:46.582Z,98915.72
2022-11-22T12:13:21.735Z,98917.28
2022-11-22T12:15:58.957Z,98928.59
2022-11-22T12:18:39.957Z,98932.09
2022-11-22T12:21:20.838Z,98938.66
2022-11-22T12:24:13.273Z,98931.31
2022-11-22T12:26:47.333Z,98919.34
2022-11-22T12:29:16.838Z,98919.97
2022-11-22T12:31:50.774Z,98914.94
2022-11-22T12:34:26.117Z,98909.50
2022-11-22T12:37:00.502Z,98904.06
2022-11-22T12:39:30.181Z,98881.53
2022-11-22T12:42:03.982Z,98878.47
2022-11-22T12:44:38.735Z,98886.28
2022-11-22T12:47:13.182Z,98884.31
2022-11-22T12:49:44.935Z,98872.22
2022-11-22T12:52:19.394Z,98862.44
2022-11-22T12:54:59.392Z,98860.06
2022-11-22T12:57:37.840Z,98850.09
2022-11-22T13:00:14.084Z,98850.44
2022-11-22T13:02:48.511Z,98850.50
2022-11-22T13:05:21.571Z,98831.44
2022-11-22T13:07:57.479Z,98830.59
2022-11-22T13:10:35.325Z,98824.03
2022-11-22T13:13:07.649Z,98851.16
2022-11-22T13:15:40.683Z,98850.81
2022-11-22T13:18:11.027Z,98832.56
2022-11-22T13:20:43.537Z,98842.66
2022-11-22T13:23:30.803Z,98837.22
2022-11-22T13:26:13.256Z,98833.72
2022-11-22T13:28:45.922Z,98833.31
2022-11-22T13:31:20.380Z,98836.38
2022-11-22T13:33:59.553Z,98829.31
2022-11-22T13:36:46.384Z,98842.22
2022-11-22T13:39:20.229Z,98846.13
2022-11-22T13:41:54.491Z,98852.69
2022-11-22T13:44:39.384Z,98855.75
2022-11-22T13:47:45.230Z,98867.81
2022-11-22T13:50:53.547Z,98880.75
2022-11-22T13:53:33.570Z,98886.56
2022-11-22T13:56:59.703Z,98899.75
2022-11-22T13:59:28.191Z,98902.88
2022-11-22T14:02:03.069Z,98897.03
2022-11-22T14:04:41.656Z,98907.03
2022-11-22T14:07:28.855Z,98893.56
2022-11-22T14:09:58.675Z,98869.13
2022-11-22T14:12:39.908Z,98838.81
2022-11-22T14:15:30.892Z,98839.56
2022-11-22T14:18:16.622Z,98837.97
2022-11-22T14:21:00.317Z,98823.97
2022-11-22T14:23:39.098Z,98824.03
2022-11-22T14:26:22.095Z,98817.75
2022-11-22T14:29:25.802Z,98812.28
2022-11-22T14:31:57.328Z,98811.50
2022-11-22T14:34:28.866Z,98796.72
2022-11-22T14:37:31.815Z,98809.81
2022-11-22T14:40:16.266Z,98793.16
2022-11-22T14:42:50.893Z,98783.91
2022-11-22T14:45:24.222Z,98792.38
2022-11-22T14:48:01.281Z,98805.56
2022-11-22T14:50:35.126Z,98808.66
2022-11-22T14:53:18.714Z,98809.00
2022-11-22T14:55:49.240Z,98819.09
2022-11-22T14:58:23.454Z,98824.91
2022-11-22T15:01:12.261Z,98820.53
2022-11-22T15:09:11.238Z,98812.72
2022-11-22T15:09:20.993Z,98818.84
2022-11-22T15:10:59.164Z,98818.78
2022-11-22T15:13:48.291Z,98813.31
2022-11-22T15:57:27.472Z,98773.31
2022-11-22T15:59:57.153Z,98777.31
2022-11-22T16:02:27.795Z,98770.03
2022-11-22T16:06:08.004Z,98783.66
2022-11-22T16:07:49.417Z,98776.22
2022-11-22T16:10:21.508Z,98789.94
2022-11-22T16:12:51.550Z,98793.75
2022-11-22T16:15:30.449Z,98791.56
2022-11-22T16:18:08.956Z,98789.81
2022-11-22T16:20:38.033Z,98791.72
2022-11-22T16:23:14.240Z,98790.50
2022-11-22T16:25:44.216Z,98792.34
2022-11-22T16:28:35.222Z,98790.00
2022-11-22T16:31:17.328Z,98780.69
2022-11-22T16:33:46.202Z,98791.94
2022-11-22T16:36:16.107Z,98790.34
2022-11-22T16:38:45.142Z,98775.59
2022-11-22T16:41:18.334Z,98771.25
2022-11-22T16:43:49.489Z,98775.50
2022-11-22T16:46:18.143Z,98773.25
2022-11-22T16:48:46.319Z,98782.47
2022-11-22T16:51:17.082Z,98770.75
2022-11-22T16:53:47.303Z,98759.06
2022-11-22T16:56:21.212Z,98767.56
2022-11-22T16:58:51.948Z,98775.56
2022-11-22T17:01:22.774Z,98751.44
2022-11-22T17:03:53.782Z,98755.88
2022-11-22T17:06:25.083Z,98770.94
2022-11-22T17:08:54.682Z,98764.47
2022-11-22T17:11:25.074Z,98760.50
2022-11-22T17:13:55.318Z,98776.09
2022-11-22T17:16:23.480Z,98771.38
2022-11-22T17:18:53.099Z,98752.25
2022-11-22T17:21:27.865Z,98744.13
2022-11-22T17:24:00.829Z,98741.75
2022-11-22T17:26:30.035Z,98739.88
2022-11-22T17:28:59.712Z,98743.50
2022-11-22T17:31:30.140Z,98741.47
2022-11-22T17:33:59.958Z,98730.09
2022-11-22T17:36:30.703Z,98745.09
2022-11-22T17:38:59.775Z,98739.69
2022-11-22T17:41:29.202Z,98730.34
2022-11-22T17:43:57.709Z,98719.84
2022-11-22T17:46:27.586Z,98724.53
2022-11-22T17:48:58.068Z,98708.38
2022-11-22T17:51:26.860Z,98699.16
2022-11-22T17:53:55.814Z,98709.09
2022-11-22T17:56:24.024Z,98718.75
2022-11-22T17:58:52.444Z,98710.63
2022-11-22T18:01:23.156Z,98707.50
2022-11-22T18:03:52.725Z,98715.97
2022-11-22T18:06:22.165Z,98718.66
2022-11-22T18:08:50.627Z,98704.34
2022-11-22T18:11:19.252Z,98694.84
2022-11-22T18:13:47.308Z,98691.34
2022-11-22T18:16:18.262Z,98687.09
2022-11-22T18:19:02.286Z,98676.72
2022-11-22T18:21:33.884Z,98673.41
2022-11-22T18:24:02.594Z,98666.47
2022-11-22T18:26:39.332Z,98655.50
2022-11-22T18:29:40.704Z,98643.28
2022-11-22T18:31:56.960Z,98631.56
2022-11-22T18:34:26.019Z,98639.13
2022-11-22T18:37:03.853Z,98636.78
2022-11-22T18:39:36.120Z,98639.88
2022-11-22T18:42:05.988Z,98644.19
2022-11-22T18:44:34.410Z,98661.19
2022-11-22T18:47:03.054Z,98659.94
2022-11-22T18:49:32.242Z,98669.16
2022-11-22T18:52:02.570Z,98652.91
2022-11-22T18:54:31.011Z,98644.38
2022-11-22T18:56:59.329Z,98630.91
2022-11-22T18:59:27.606Z,98650.94
2022-11-22T19:01:55.627Z,98651.00
2022-11-22T19:04:24.526Z,98650.72
2022-11-22T19:06:52.750Z,98636.31
2022-11-22T19:09:22.512Z,98625.59
2022-11-22T19:11:56.944Z,98616.47
2022-11-22T19:14:27.139Z,98615.91
2022-11-22T19:16:55.550Z,98603.50
2022-11-22T19:19:24.389Z,98593.50
2022-11-22T19:21:52.431Z,98590.53
2022-11-22T19:24:21.992Z,98603.97
2022-11-22T19:26:50.194Z,98597.72
2022-11-22T19:29:18.537Z,98601.66
2022-11-22T19:31:46.724Z,98616.34
2022-11-22T19:34:15.399Z,98611.34
2022-11-22T19:36:43.940Z,98609.56
2022-11-22T19:39:14.666Z,98614.81
2022-11-22T19:41:45.287Z,98601.97
2022-11-22T19:44:13.328Z,98590.34
2022-11-22T19:46:41.726Z,98596.06
2022-11-22T19:49:11.260Z,98594.91
2022-11-22T19:51:39.393Z,98592.53
2022-11-22T19:54:08.430Z,98595.31
2022-11-22T19:56:38.512Z,98593.81
2022-11-22T19:59:10.482Z,98600.78
2022-11-22T20:01:39.838Z,98594.94
2022-11-22T20:04:08.505Z,98595.97
2022-11-22T20:06:37.630Z,98588.00
2022-11-22T20:09:10.310Z,98588.13
2022-11-22T20:11:39.666Z,98588.47
2022-11-22T20:14:10.280Z,98579.34
2022-11-22T20:16:41.397Z,98568.22
2022-11-22T20:19:09.759Z,98564.75
2022-11-22T20:21:38.745Z,98564.53
2022-11-22T20:24:08.064Z,98566.75
2022-11-22T20:26:36.630Z,98555.81
2022-11-22T20:29:06.845Z,98570.69
2022-11-22T20:31:37.992Z,98577.22
2022-11-22T20:34:06.769Z,98586.75
2022-11-22T20:36:36.127Z,98598.19
2022-11-22T20:39:10.034Z,98593.03
2022-11-22T20:41:40.142Z,98592.50
2022-11-22T20:44:08.575Z,98584.34
2022-11-22T20:46:38.955Z,98577.72
2022-11-22T20:49:07.215Z,98575.56
2022-11-22T20:51:38.765Z,98570.56
2022-11-22T20:54:10.931Z,98568.00
2022-11-22T20:56:39.730Z,98577.34
2022-11-22T20:59:08.088Z,98585.03
2022-11-22T21:01:38.701Z,98581.44
2022-11-22T21:04:07.590Z,98569.13
2022-11-22T21:06:35.934Z,98566.25
2022-11-22T21:09:05.237Z,98562.94
2022-11-22T21:11:33.847Z,98556.63
2022-11-22T21:14:03.020Z,98540.72
2022-11-22T21:16:32.665Z,98526.91
2022-11-22T21:19:05.216Z,98528.47
2022-11-22T21:21:36.479Z,98528.00
2022-11-22T21:24:07.129Z,98522.13
2022-11-22T21:26:35.708Z,98507.16
2022-11-22T21:29:05.542Z,98512.81
2022-11-22T21:31:33.676Z,98490.81
2022-11-22T21:34:03.217Z,98480.31
2022-11-22T21:36:31.298Z,98463.03
2022-11-22T21:38:59.344Z,98455.84
2022-11-22T21:41:42.541Z,98445.47
2022-11-22T21:44:11.064Z,98443.88
2022-11-22T21:46:39.587Z,98447.78
2022-11-22T21:49:09.243Z,98456.69
2022-11-22T21:51:37.456Z,98437.63
2022-11-22T21:54:06.522Z,98437.94
2022-11-22T21:56:35.526Z,98434.47
2022-11-22T21:59:03.702Z,98445.63
2022-11-22T22:01:32.270Z,98441.41
2022-11-22T22:04:00.408Z,98427.13
2022-11-22T22:06:30.360Z,98425.97
2022-11-22T22:08:58.430Z,98434.38
2022-11-22T22:11:26.514Z,98437.03
2022-11-22T22:13:55.399Z,98437.03
2022-11-22T22:16:26.026Z,98438.66
2022-11-22T22:18:54.334Z,98427.09
2022-11-22T22:21:22.499Z,98418.38
2022-11-22T22:23:53.547Z,98429.38
2022-11-22T22:26:21.681Z,98423.88
2022-11-22T22:28:49.729Z,98411.78
2022-11-22T22:31:21.884Z,98413.88
2022-11-22T22:33:51.286Z,98411.03
2022-11-22T22:36:20.135Z,98401.66
2022-11-22T22:38:48.235Z,98394.28
2022-11-22T22:41:18.262Z,98398.75
2022-11-22T22:43:48.162Z,98394.09
2022-11-22T22:46:18.056Z,98385.22
2022-11-22T22:48:47.422Z,98386.72
2022-11-22T22:51:17.723Z,98382.03
2022-11-22T22:53:46.582Z,98366.19
2022-11-22T22:56:16.497Z,98367.75
2022-11-22T22:58:46.182Z,98373.06
2022-11-22T23:01:17.604Z,98380.47
2022-11-22T23:03:48.704Z,98392.66
2022-11-22T23:06:17.430Z,98390.31
2022-11-22T23:08:47.685Z,98380.94
2022-11-22T23:11:17.767Z,98388.59
2022-11-22T23:13:47.744Z,98378.66
2022-11-22T23:16:16.732Z,98387.97
2022-11-22T23:18:46.278Z,98386.34
2022-11-22T23:21:16.716Z,98382.50
2022-11-22T23:23:44.901Z,98387.09
2022-11-22T23:26:14.138Z,98380.53
2022-11-22T23:28:42.210Z,98384.09
2022-11-22T23:31:13.629Z,98359.47
2022-11-22T23:33:42.664Z,98361.25
2022-11-22T23:36:13.275Z,98361.25
2022-11-22T23:38:42.131Z,98358.50
2022-11-22T23:41:13.242Z,98370.19
2022-11-22T23:43:41.545Z,98346.94
2022-11-22T23:46:16.193Z,98357.72
2022-11-22T23:48:44.820Z,98362.31
2022-11-22T23:51:14.062Z,98353.38
2022-11-22T23:53:42.638Z,98352.03
2022-11-22T23:56:15.100Z,98349.59
2022-11-22T23:58:46.532Z,98344.06
